Time;durP1;ratioP1;P1;durP2;ratioP2;P2;SDS_P1;SDS_P2;PMS_P1;PMS_P2;Temp;Humidity;BMP_temperature;BMP_pressure;BME280_temperature;BME280_humidity;BME280_pressure;Samples;Min_cycle;Max_cycle;Signal;HPM_P1;HPM_P2
2022/03/09 00:01:28;;;;;;;26.88;17.95;;;;;;;;;;5033816;28;20072;-64
2022/03/09 00:03:54;;;;;;;24.88;17.65;;;;;;;;;;5031220;28;20029;-64
2022/03/09 00:06:20;;;;;;;26.77;17.27;;;;;;;;;;5035349;28;20035;-64
2022/03/09 00:08:46;;;;;;;23.75;16.75;;;;;;;;;;5034565;28;20041;-64
2022/03/09 00:11:11;;;;;;;27.73;16.90;;;;;;;;;;5032895;28;20025;-64
2022/03/09 00:13:37;;;;;;;23.38;17.30;;;;;;;;;;5034018;28;20033;-64
2022/03/09 00:16:03;;;;;;;24.08;16.98;;;;;;;;;;5030686;28;20047;-64
2022/03/09 00:18:28;;;;;;;27.15;17.77;;;;;;;;;;5036444;28;20112;-64
2022/03/09 00:20:54;;;;;;;26.75;17.27;;;;;;;;;;5033101;28;20025;-64
2022/03/09 00:23:20;;;;;;;26.83;16.88;;;;;;;;;;5038693;28;20381;-64
2022/03/09 00:25:46;;;;;;;24.30;17.10;;;;;;;;;;5030842;28;20514;-64
2022/03/09 00:28:11;;;;;;;23.98;16.95;;;;;;;;;;5036642;28;20530;-64
2022/03/09 00:30:37;;;;;;;25.45;15.82;;;;;;;;;;5039607;28;20103;-64
2022/03/09 00:33:03;;;;;;;22.02;15.75;;;;;;;;;;5034255;28;20025;-64
2022/03/09 00:35:28;;;;;;;24.40;16.17;;;;;;;;;;5032900;28;20116;-64
2022/03/09 00:37:54;;;;;;;22.13;16.35;;;;;;;;;;5030654;28;20060;-64
2022/03/09 00:40:20;;;;;;;25.25;16.92;;;;;;;;;;5035146;28;20048;-64
2022/03/09 00:42:45;;;;;;;22.45;15.80;;;;;;;;;;5032682;28;20057;-64
2022/03/09 00:45:11;;;;;;;25.88;15.95;;;;;;;;;;5037159;28;20482;-64
2022/03/09 00:47:37;;;;;;;27.80;17.10;;;;;;;;;;5033061;28;20037;-64
2022/03/09 00:50:05;;;;;;;23.58;16.52;;;;;;;;;;5029678;28;20482;-64
2022/03/09 00:52:31;;;;;;;24.15;16.65;;;;;;;;;;5044683;28;20108;-64
2022/03/09 00:54:57;;;;;;;23.38;16.35;;;;;;;;;;5035934;28;20108;-64
2022/03/09 00:57:22;;;;;;;28.65;17.05;;;;;;;;;;5033463;28;20997;-64
2022/03/09 00:59:48;;;;;;;23.70;16.77;;;;;;;;;;5034545;28;20037;-64
2022/03/09 01:02:14;;;;;;;29.55;16.88;;;;;;;;;;5037532;28;20049;-64
2022/03/09 01:04:40;;;;;;;23.52;16.95;;;;;;;;;;5034443;28;20064;-64
2022/03/09 01:07:06;;;;;;;22.20;17.02;;;;;;;;;;5035095;28;20555;-64
2022/03/09 01:09:32;;;;;;;21.50;16.02;;;;;;;;;;5030353;28;20116;-64
2022/03/09 01:11:58;;;;;;;28.10;16.80;;;;;;;;;;5034483;28;20155;-64
2022/03/09 01:14:24;;;;;;;24.92;17.13;;;;;;;;;;5032861;28;20502;-63
2022/03/09 01:16:50;;;;;;;23.75;16.83;;;;;;;;;;5033156;28;20030;-64
2022/03/09 01:19:16;;;;;;;25.13;16.90;;;;;;;;;;5034239;28;20036;-63
2022/03/09 01:21:41;;;;;;;24.25;17.25;;;;;;;;;;5036460;28;20470;-63
2022/03/09 01:24:07;;;;;;;22.67;17.15;;;;;;;;;;5030073;28;20048;-63
2022/03/09 01:26:34;;;;;;;24.17;16.15;;;;;;;;;;5035447;28;20037;-63
2022/03/09 01:29:00;;;;;;;25.25;17.73;;;;;;;;;;5034730;28;20381;-64
2022/03/09 01:31:25;;;;;;;19.80;16.30;;;;;;;;;;5036602;28;20037;-64
2022/03/09 01:33:51;;;;;;;27.77;16.95;;;;;;;;;;5043729;28;20036;-64
2022/03/09 01:36:17;;;;;;;26.38;16.70;;;;;;;;;;5037403;28;20042;-64
2022/03/09 01:38:43;;;;;;;25.98;17.77;;;;;;;;;;5039300;28;20025;-64
2022/03/09 01:41:09;;;;;;;22.55;17.23;;;;;;;;;;5039043;28;20060;-64
2022/03/09 01:43:35;;;;;;;24.90;16.40;;;;;;;;;;5036853;28;20104;-64
2022/03/09 01:46:00;;;;;;;20.35;16.65;;;;;;;;;;5031986;28;20759;-64
2022/03/09 01:48:26;;;;;;;21.98;16.48;;;;;;;;;;5036153;28;20051;-63
2022/03/09 01:50:52;;;;;;;28.10;17.45;;;;;;;;;;5043437;28;20037;-64
2022/03/09 01:53:18;;;;;;;23.92;16.25;;;;;;;;;;5036011;28;20044;-64
2022/03/09 01:55:45;;;;;;;27.67;17.75;;;;;;;;;;5033318;28;20035;-63
2022/03/09 01:58:11;;;;;;;23.75;16.27;;;;;;;;;;5038897;28;20036;-64
2022/03/09 02:00:37;;;;;;;24.10;16.75;;;;;;;;;;5043089;28;20028;-64
2022/03/09 02:03:03;;;;;;;24.42;17.08;;;;;;;;;;5038943;28;20029;-63
2022/03/09 02:05:28;;;;;;;24.05;16.77;;;;;;;;;;5038387;28;20035;-64
2022/03/09 02:10:39;;;;;;;24.52;14.98;;;;;;;;;;5036919;28;20033;-64
2022/03/09 02:13:07;;;;;;;22.05;15.65;;;;;;;;;;5045518;28;20025;-63
2022/03/09 02:15:33;;;;;;;23.13;17.20;;;;;;;;;;5040239;28;21996;-64
2022/03/09 02:18:01;;;;;;;25.45;16.92;;;;;;;;;;5036954;28;20104;-64
2022/03/09 02:20:27;;;;;;;28.63;17.33;;;;;;;;;;5034229;28;20133;-64
2022/03/09 02:22:53;;;;;;;24.25;16.90;;;;;;;;;;5038333;28;20052;-64
2022/03/09 02:25:20;;;;;;;22.70;17.08;;;;;;;;;;5033628;28;20537;-64
2022/03/09 02:27:46;;;;;;;25.90;17.98;;;;;;;;;;5038533;28;20025;-63
2022/03/09 02:30:16;;;;;;;23.65;17.10;;;;;;;;;;5036712;28;20478;-64
2022/03/09 02:32:44;;;;;;;26.30;18.33;;;;;;;;;;5039426;28;20420;-63
2022/03/09 02:35:14;;;;;;;27.70;17.92;;;;;;;;;;5035456;28;20040;-63
2022/03/09 02:37:40;;;;;;;26.08;16.95;;;;;;;;;;5031594;28;20558;-64
2022/03/09 02:40:12;;;;;;;24.88;18.02;;;;;;;;;;5038755;28;20752;-64
2022/03/09 02:42:38;;;;;;;25.50;16.55;;;;;;;;;;5036350;28;20179;-64
2022/03/09 02:45:05;;;;;;;25.40;17.05;;;;;;;;;;5032993;28;20560;-63
2022/03/09 02:47:31;;;;;;;25.77;17.38;;;;;;;;;;5034833;28;20047;-64
2022/03/09 02:49:57;;;;;;;25.20;16.30;;;;;;;;;;5042544;28;20029;-64
2022/03/09 02:52:22;;;;;;;23.08;16.83;;;;;;;;;;5037780;28;20036;-63
2022/03/09 02:54:48;;;;;;;27.65;17.00;;;;;;;;;;5038114;28;20436;-64
2022/03/09 02:57:15;;;;;;;23.63;16.42;;;;;;;;;;5031583;28;20474;-64
2022/03/09 02:59:40;;;;;;;23.85;16.38;;;;;;;;;;5035029;28;20083;-64
2022/03/09 03:02:06;;;;;;;23.33;17.30;;;;;;;;;;5034000;28;20069;-64
2022/03/09 03:04:31;;;;;;;22.50;16.10;;;;;;;;;;5040912;28;20035;-63
2022/03/09 03:06:57;;;;;;;25.23;16.95;;;;;;;;;;5035519;28;20021;-63
2022/03/09 03:09:23;;;;;;;24.35;17.55;;;;;;;;;;5034387;28;20482;-64
2022/03/09 03:11:48;;;;;;;21.48;16.15;;;;;;;;;;5040548;28;20029;-64
2022/03/09 03:14:14;;;;;;;25.60;16.95;;;;;;;;;;5031516;28;20080;-64
2022/03/09 03:16:40;;;;;;;22.30;16.40;;;;;;;;;;5034711;28;21056;-64
2022/03/09 03:19:06;;;;;;;22.55;16.02;;;;;;;;;;5038207;28;20040;-64
2022/03/09 03:21:32;;;;;;;25.95;17.35;;;;;;;;;;5036232;28;20021;-64
2022/03/09 03:23:58;;;;;;;26.52;16.15;;;;;;;;;;5034896;28;20025;-64
2022/03/09 03:26:24;;;;;;;20.67;15.48;;;;;;;;;;5034960;28;20064;-63
2022/03/09 03:28:51;;;;;;;23.17;16.58;;;;;;;;;;5030478;28;20033;-64
2022/03/09 03:31:21;;;;;;;25.98;17.73;;;;;;;;;;5039944;28;20801;-64
2022/03/09 03:33:47;;;;;;;23.17;17.05;;;;;;;;;;5039002;28;20075;-64
2022/03/09 03:36:16;;;;;;;25.13;16.63;;;;;;;;;;5036348;28;20043;-64
2022/03/09 03:38:43;;;;;;;27.20;16.35;;;;;;;;;;5030281;28;20154;-64
2022/03/09 03:41:08;;;;;;;21.25;16.50;;;;;;;;;;5031047;28;20044;-64
2022/03/09 03:43:34;;;;;;;27.38;17.00;;;;;;;;;;5034423;28;20026;-64
2022/03/09 03:46:00;;;;;;;27.88;17.15;;;;;;;;;;5040332;28;20049;-64
2022/03/09 03:48:26;;;;;;;25.15;16.75;;;;;;;;;;5033130;28;20033;-63
2022/03/09 03:50:51;;;;;;;20.65;16.75;;;;;;;;;;5034217;28;20471;-63
2022/03/09 03:53:17;;;;;;;25.60;16.92;;;;;;;;;;5037204;28;20036;-63
2022/03/09 03:55:44;;;;;;;21.58;16.83;;;;;;;;;;5033755;28;20033;-63
2022/03/09 03:58:11;;;;;;;27.75;18.05;;;;;;;;;;5035380;28;20052;-63
2022/03/09 04:00:37;;;;;;;25.35;17.77;;;;;;;;;;5030966;28;20048;-63
2022/03/09 04:03:03;;;;;;;24.55;17.17;;;;;;;;;;5035149;28;20140;-63
2022/03/09 04:05:29;;;;;;;22.52;16.48;;;;;;;;;;5033786;28;20108;-64
2022/03/09 04:07:56;;;;;;;32.50;17.98;;;;;;;;;;5033388;28;20039;-64
2022/03/09 04:10:21;;;;;;;22.05;17.52;;;;;;;;;;5034165;28;20033;-63
2022/03/09 04:12:47;;;;;;;24.52;18.00;;;;;;;;;;5034846;28;20421;-64
2022/03/09 04:15:14;;;;;;;24.15;17.77;;;;;;;;;;5032932;28;20033;-63
2022/03/09 04:17:40;;;;;;;22.60;18.13;;;;;;;;;;5040715;28;20042;-63
2022/03/09 04:20:07;;;;;;;25.45;16.65;;;;;;;;;;5034064;28;20135;-64
2022/03/09 04:22:32;;;;;;;24.10;16.45;;;;;;;;;;5034453;28;20029;-64
2022/03/09 04:24:59;;;;;;;25.45;16.90;;;;;;;;;;5034244;28;20482;-64
2022/03/09 04:27:24;;;;;;;25.17;17.15;;;;;;;;;;5033488;28;20087;-64
2022/03/09 04:29:50;;;;;;;20.85;16.95;;;;;;;;;;5029902;28;20413;-64
2022/03/09 04:32:16;;;;;;;22.08;16.73;;;;;;;;;;5037017;28;20033;-64
2022/03/09 04:34:41;;;;;;;23.67;16.73;;;;;;;;;;5031560;28;20451;-64
2022/03/09 04:37:07;;;;;;;23.17;16.33;;;;;;;;;;5032399;28;20442;-64
2022/03/09 04:39:33;;;;;;;25.88;16.88;;;;;;;;;;5040182;28;20469;-64
2022/03/09 04:41:58;;;;;;;21.85;16.02;;;;;;;;;;5035642;28;20040;-63
2022/03/09 04:44:24;;;;;;;20.80;16.13;;;;;;;;;;5034422;28;20088;-63
2022/03/09 04:46:50;;;;;;;22.55;16.15;;;;;;;;;;5029454;28;20038;-63
2022/03/09 04:49:16;;;;;;;28.73;16.92;;;;;;;;;;5030582;28;20301;-64
2022/03/09 04:51:41;;;;;;;28.60;16.80;;;;;;;;;;5031673;28;20033;-63
2022/03/09 04:54:07;;;;;;;23.35;17.00;;;;;;;;;;5035330;28;20042;-63
2022/03/09 04:56:33;;;;;;;24.23;16.45;;;;;;;;;;5032856;28;20043;-64
2022/03/09 04:58:58;;;;;;;24.20;16.27;;;;;;;;;;5031430;28;20040;-64
2022/03/09 05:01:24;;;;;;;27.25;16.83;;;;;;;;;;5038812;28;20014;-63
2022/03/09 05:03:50;;;;;;;21.95;16.52;;;;;;;;;;5034354;28;20033;-63
2022/03/09 05:06:16;;;;;;;24.02;16.45;;;;;;;;;;5037325;28;20486;-64
2022/03/09 05:08:42;;;;;;;27.10;17.00;;;;;;;;;;5039845;28;20394;-63
2022/03/09 05:11:08;;;;;;;21.73;16.52;;;;;;;;;;5035414;28;20044;-64
2022/03/09 05:13:33;;;;;;;26.50;15.95;;;;;;;;;;5036915;28;20036;-64
2022/03/09 05:15:59;;;;;;;20.48;16.23;;;;;;;;;;5038880;28;21298;-63
2022/03/09 05:18:25;;;;;;;22.33;16.75;;;;;;;;;;5034839;28;20071;-63
2022/03/09 05:20:50;;;;;;;26.52;16.80;;;;;;;;;;5040933;28;20112;-64
2022/03/09 05:23:16;;;;;;;23.23;15.88;;;;;;;;;;5034006;28;20452;-64
2022/03/09 05:25:42;;;;;;;24.90;17.38;;;;;;;;;;5035247;28;20057;-63
2022/03/09 05:28:08;;;;;;;25.85;16.83;;;;;;;;;;5038930;28;20029;-64
2022/03/09 05:30:33;;;;;;;24.20;17.20;;;;;;;;;;5037021;28;20037;-63
2022/03/09 05:32:59;;;;;;;25.30;16.65;;;;;;;;;;5035525;28;20029;-64
2022/03/09 05:35:24;;;;;;;22.75;16.27;;;;;;;;;;5043306;28;20120;-64
2022/03/09 05:37:50;;;;;;;26.75;17.30;;;;;;;;;;5041612;28;20076;-63
2022/03/09 05:40:16;;;;;;;27.17;17.48;;;;;;;;;;5035399;28;20064;-64
2022/03/09 05:42:45;;;;;;;28.30;17.40;;;;;;;;;;5042316;28;20478;-64
2022/03/09 05:45:12;;;;;;;30.20;17.25;;;;;;;;;;5035967;28;20065;-63
2022/03/09 05:47:38;;;;;;;26.85;17.80;;;;;;;;;;5035247;28;20163;-64
2022/03/09 05:50:04;;;;;;;23.63;17.88;;;;;;;;;;5034979;28;20124;-64
2022/03/09 05:52:30;;;;;;;21.92;16.42;;;;;;;;;;5037556;28;20099;-63
2022/03/09 05:54:56;;;;;;;28.08;17.83;;;;;;;;;;5037123;28;20087;-64
2022/03/09 05:57:22;;;;;;;25.25;17.70;;;;;;;;;;5034159;28;20045;-63
2022/03/09 05:59:49;;;;;;;24.05;16.67;;;;;;;;;;5032040;28;20134;-64
2022/03/09 06:02:15;;;;;;;24.15;16.63;;;;;;;;;;5034373;28;22308;-64
2022/03/09 06:04:42;;;;;;;22.92;17.42;;;;;;;;;;5038911;28;20208;-63
2022/03/09 06:07:08;;;;;;;27.30;17.75;;;;;;;;;;5034572;28;20029;-63
2022/03/09 06:09:34;;;;;;;30.30;17.67;;;;;;;;;;5042366;28;20513;-63
2022/03/09 06:11:59;;;;;;;24.83;18.02;;;;;;;;;;5031780;28;20030;-64
2022/03/09 06:14:25;;;;;;;27.08;17.88;;;;;;;;;;5045478;28;20028;-63
2022/03/09 06:16:51;;;;;;;27.48;17.83;;;;;;;;;;5039281;28;20029;-64
2022/03/09 06:19:18;;;;;;;28.10;18.23;;;;;;;;;;5040005;28;20533;-64
2022/03/09 06:21:44;;;;;;;28.33;17.38;;;;;;;;;;5039129;28;20048;-63
2022/03/09 06:24:10;;;;;;;25.85;18.00;;;;;;;;;;5034229;28;20028;-64
2022/03/09 06:26:36;;;;;;;28.92;18.02;;;;;;;;;;5037063;28;20038;-64
2022/03/09 06:29:05;;;;;;;27.25;17.88;;;;;;;;;;5037145;28;20059;-63
2022/03/09 06:31:32;;;;;;;26.70;17.95;;;;;;;;;;5032174;28;20040;-64
2022/03/09 06:33:57;;;;;;;28.83;18.05;;;;;;;;;;5035064;28;20558;-64
2022/03/09 06:36:23;;;;;;;31.13;17.80;;;;;;;;;;5037153;28;20111;-63
2022/03/09 06:38:50;;;;;;;27.25;17.55;;;;;;;;;;5039906;28;20033;-64
2022/03/09 06:41:16;;;;;;;25.75;17.45;;;;;;;;;;5034636;28;20555;-63
2022/03/09 06:43:42;;;;;;;31.83;17.60;;;;;;;;;;5037039;28;20048;-63
2022/03/09 06:46:07;;;;;;;25.27;17.23;;;;;;;;;;5034195;28;20041;-64
2022/03/09 06:48:34;;;;;;;30.55;17.80;;;;;;;;;;5035063;28;20037;-64
2022/03/09 06:51:00;;;;;;;30.83;17.92;;;;;;;;;;5040134;28;20029;-64
2022/03/09 06:53:26;;;;;;;23.27;17.75;;;;;;;;;;5035844;28;20033;-64
2022/03/09 06:55:51;;;;;;;23.23;17.05;;;;;;;;;;5034756;28;20033;-64
2022/03/09 06:58:18;;;;;;;27.73;17.75;;;;;;;;;;5039007;28;20116;-63
2022/03/09 07:00:43;;;;;;;31.08;17.92;;;;;;;;;;5039743;28;20029;-64
2022/03/09 07:03:09;;;;;;;31.10;17.90;;;;;;;;;;5039000;28;20473;-64
2022/03/09 07:05:35;;;;;;;23.92;17.40;;;;;;;;;;5031153;28;20491;-64
2022/03/09 07:08:01;;;;;;;33.35;18.90;;;;;;;;;;5034616;28;20037;-64
2022/03/09 07:10:27;;;;;;;23.00;17.27;;;;;;;;;;5033653;28;20044;-64
2022/03/09 07:12:53;;;;;;;28.00;17.55;;;;;;;;;;5042653;28;20037;-64
2022/03/09 07:15:18;;;;;;;24.85;17.38;;;;;;;;;;5036921;28;20156;-64
2022/03/09 07:17:46;;;;;;;25.10;17.33;;;;;;;;;;5037982;28;20116;-63
2022/03/09 07:20:13;;;;;;;29.05;17.10;;;;;;;;;;5033176;28;20026;-64
2022/03/09 07:22:40;;;;;;;26.73;17.13;;;;;;;;;;5030819;28;20091;-64
2022/03/09 07:25:07;;;;;;;29.10;16.90;;;;;;;;;;5032814;28;20506;-63
2022/03/09 07:27:32;;;;;;;25.17;16.70;;;;;;;;;;5036954;28;20033;-64
2022/03/09 07:29:58;;;;;;;26.50;17.42;;;;;;;;;;5038680;28;20047;-64
2022/03/09 07:32:23;;;;;;;23.52;17.45;;;;;;;;;;5034657;28;20033;-63
2022/03/09 07:34:49;;;;;;;24.45;16.65;;;;;;;;;;5030164;28;20500;-64
2022/03/09 07:37:15;;;;;;;26.95;16.48;;;;;;;;;;5035503;28;20030;-64
2022/03/09 07:39:41;;;;;;;26.45;16.58;;;;;;;;;;5034602;28;20500;-64
2022/03/09 07:42:07;;;;;;;27.60;16.85;;;;;;;;;;5034617;28;20433;-63
2022/03/09 07:44:32;;;;;;;25.23;17.40;;;;;;;;;;5033883;28;20034;-63
2022/03/09 07:46:58;;;;;;;20.95;15.93;;;;;;;;;;5035483;28;20024;-64
2022/03/09 07:49:25;;;;;;;21.88;16.15;;;;;;;;;;5034053;28;20720;-64
2022/03/09 07:51:50;;;;;;;20.67;15.55;;;;;;;;;;5035653;28;20053;-64
2022/03/09 07:54:16;;;;;;;26.02;17.52;;;;;;;;;;5039032;28;20060;-64
2022/03/09 07:56:43;;;;;;;22.20;15.50;;;;;;;;;;5031966;28;20037;-64
2022/03/09 07:59:10;;;;;;;18.30;14.57;;;;;;;;;;5037519;28;20041;-64
2022/03/09 08:01:40;;;;;;;21.00;14.75;;;;;;;;;;5031050;28;20041;-64
2022/03/09 08:04:07;;;;;;;25.58;15.80;;;;;;;;;;5041664;28;20406;-64
2022/03/09 08:06:34;;;;;;;24.77;15.68;;;;;;;;;;5032425;28;20533;-64
2022/03/09 08:08:59;;;;;;;22.80;16.05;;;;;;;;;;5035484;28;20497;-64
2022/03/09 08:11:26;;;;;;;21.05;14.88;;;;;;;;;;5033679;28;20029;-64
2022/03/09 08:13:53;;;;;;;22.20;15.45;;;;;;;;;;5034523;28;20389;-64
2022/03/09 08:16:19;;;;;;;32.42;15.30;;;;;;;;;;5038030;28;20619;-64
2022/03/09 08:18:44;;;;;;;25.33;15.32;;;;;;;;;;5042513;28;20033;-64
2022/03/09 08:21:10;;;;;;;19.30;14.73;;;;;;;;;;5040608;28;20082;-63
2022/03/09 08:23:36;;;;;;;23.02;15.13;;;;;;;;;;5039198;28;20029;-64
2022/03/09 08:26:02;;;;;;;17.73;13.75;;;;;;;;;;5030801;28;20107;-64
2022/03/09 08:28:28;;;;;;;20.30;15.10;;;;;;;;;;5032751;28;20064;-63
2022/03/09 08:30:54;;;;;;;19.90;14.27;;;;;;;;;;5035983;28;20056;-64
2022/03/09 08:33:21;;;;;;;17.65;13.13;;;;;;;;;;5037860;28;20549;-64
2022/03/09 08:35:47;;;;;;;20.92;13.80;;;;;;;;;;5038708;28;20043;-64
2022/03/09 08:38:12;;;;;;;15.65;13.18;;;;;;;;;;5032827;28;20021;-63
2022/03/09 08:40:38;;;;;;;22.92;14.02;;;;;;;;;;5029896;28;20037;-64
2022/03/09 08:43:04;;;;;;;19.17;14.38;;;;;;;;;;5033286;28;20040;-63
2022/03/09 08:45:30;;;;;;;21.65;14.10;;;;;;;;;;5039971;28;20049;-64
2022/03/09 08:47:56;;;;;;;20.45;13.45;;;;;;;;;;5041543;28;20429;-64
2022/03/09 08:50:21;;;;;;;19.90;13.25;;;;;;;;;;5036034;28;20074;-60
2022/03/09 08:52:47;;;;;;;20.90;14.35;;;;;;;;;;5041554;28;20033;-64
2022/03/09 08:55:12;;;;;;;18.20;13.68;;;;;;;;;;5037195;28;20116;-64
2022/03/09 08:57:38;;;;;;;20.42;13.40;;;;;;;;;;5039233;28;20497;-64
2022/03/09 09:00:05;;;;;;;17.38;13.68;;;;;;;;;;5032865;28;20030;-64
2022/03/09 09:02:32;;;;;;;21.88;13.40;;;;;;;;;;5038067;28;20100;-63
2022/03/09 09:04:58;;;;;;;19.20;13.07;;;;;;;;;;5031010;28;20124;-64
2022/03/09 09:07:24;;;;;;;23.80;12.95;;;;;;;;;;5036112;28;20034;-64
2022/03/09 09:09:50;;;;;;;17.75;12.45;;;;;;;;;;5036579;28;20064;-64
2022/03/09 09:12:17;;;;;;;15.13;11.27;;;;;;;;;;5033245;28;20084;-64
2022/03/09 09:14:42;;;;;;;16.85;12.40;;;;;;;;;;5032443;28;20057;-64
2022/03/09 09:17:08;;;;;;;14.30;10.90;;;;;;;;;;5032176;28;20064;-63
2022/03/09 09:19:34;;;;;;;11.32;9.75;;;;;;;;;;5033453;28;20037;-64
2022/03/09 09:22:01;;;;;;;14.98;9.80;;;;;;;;;;5032803;28;20025;-64
2022/03/09 09:24:27;;;;;;;14.48;9.35;;;;;;;;;;5064531;28;20037;-63
2022/03/09 09:26:53;;;;;;;11.00;9.07;;;;;;;;;;5030456;28;20436;-64
2022/03/09 09:29:19;;;;;;;12.18;8.75;;;;;;;;;;5032002;28;20033;-64
2022/03/09 09:31:46;;;;;;;11.15;9.55;;;;;;;;;;5038183;28;20032;-63
2022/03/09 09:34:12;;;;;;;10.98;9.63;;;;;;;;;;5036479;28;20025;-64
2022/03/09 09:36:41;;;;;;;16.42;10.02;;;;;;;;;;5032366;28;20040;-64
2022/03/09 09:39:07;;;;;;;11.25;9.05;;;;;;;;;;5034759;28;20036;-63
2022/03/09 09:41:33;;;;;;;19.80;9.75;;;;;;;;;;5041078;28;20409;-64
2022/03/09 09:44:03;;;;;;;17.70;9.30;;;;;;;;;;5034207;28;20028;-64
2022/03/09 09:46:28;;;;;;;15.93;11.45;;;;;;;;;;5034233;28;20103;-64
2022/03/09 09:48:54;;;;;;;17.42;10.57;;;;;;;;;;5035469;28;20080;-64
2022/03/09 09:51:23;;;;;;;16.30;11.35;;;;;;;;;;5040699;28;20116;-64
2022/03/09 09:53:49;;;;;;;14.70;10.52;;;;;;;;;;5039159;28;20029;-64
2022/03/09 09:56:15;;;;;;;14.27;10.27;;;;;;;;;;5044295;28;20397;-64
2022/03/09 09:58:43;;;;;;;19.45;10.73;;;;;;;;;;5042262;28;20060;-64
2022/03/09 10:01:09;;;;;;;14.15;10.27;;;;;;;;;;5031600;28;20033;-64
2022/03/09 10:03:35;;;;;;;11.85;9.57;;;;;;;;;;5044716;28;20033;-64
2022/03/09 10:06:00;;;;;;;16.13;9.63;;;;;;;;;;5039682;28;20039;-63
2022/03/09 10:08:26;;;;;;;17.23;9.68;;;;;;;;;;5037106;28;20045;-64
2022/03/09 10:11:01;;;;;;;16.48;9.60;;;;;;;;;;5040685;28;20041;-64
2022/03/09 10:13:31;;;;;;;13.30;9.40;;;;;;;;;;5041263;28;20041;-64
2022/03/09 10:16:12;;;;;;;9.00;8.18;;;;;;;;;;5043708;28;20497;-64
2022/03/09 10:18:39;;;;;;;11.95;8.93;;;;;;;;;;5035066;28;20049;-64
2022/03/09 10:21:13;;;;;;;11.20;8.40;;;;;;;;;;5035627;28;20393;-63
2022/03/09 10:24:03;;;;;;;13.60;8.20;;;;;;;;;;5036188;28;20054;-64
2022/03/09 10:26:42;;;;;;;10.95;7.35;;;;;;;;;;5033283;28;20041;-64
2022/03/09 10:29:10;;;;;;;11.45;7.82;;;;;;;;;;5034848;28;20037;-64
2022/03/09 10:31:49;;;;;;;8.85;7.55;;;;;;;;;;5038932;28;20025;-64
2022/03/09 10:34:14;;;;;;;9.57;7.57;;;;;;;;;;5033619;28;20092;-64
2022/03/09 10:37:06;;;;;;;14.60;7.82;;;;;;;;;;5036881;28;20418;-64
2022/03/09 10:39:37;;;;;;;13.10;9.30;;;;;;;;;;5033719;28;20056;-64
2022/03/09 10:42:23;;;;;;;11.38;9.25;;;;;;;;;;5033504;28;20029;-64
2022/03/09 10:44:50;;;;;;;15.73;8.38;;;;;;;;;;5036320;28;20079;-64
2022/03/09 10:47:34;;;;;;;9.73;8.13;;;;;;;;;;5036608;28;20030;-64
2022/03/09 10:50:18;;;;;;;12.60;9.63;;;;;;;;;;5032263;28;20088;-64
2022/03/09 10:52:57;;;;;;;18.23;9.63;;;;;;;;;;5038806;28;21084;-64
2022/03/09 10:55:31;;;;;;;13.25;10.05;;;;;;;;;;5034692;28;20607;-64
2022/03/09 10:58:12;;;;;;;15.18;10.85;;;;;;;;;;5032769;28;20052;-64
2022/03/09 11:01:04;;;;;;;13.77;10.45;;;;;;;;;;5038423;28;20030;-63
2022/03/09 11:03:34;;;;;;;14.30;9.55;;;;;;;;;;5034762;28;20563;-64
2022/03/09 11:06:02;;;;;;;18.42;10.80;;;;;;;;;;5035019;28;20740;-63
2022/03/09 11:08:34;;;;;;;13.85;11.38;;;;;;;;;;5030503;28;20036;-64
2022/03/09 11:11:00;;;;;;;15.10;11.63;;;;;;;;;;5036747;28;20061;-64
2022/03/09 11:13:29;;;;;;;21.83;12.65;;;;;;;;;;5045005;28;20124;-64
2022/03/09 11:15:55;;;;;;;14.40;12.50;;;;;;;;;;5040047;28;20028;-64
2022/03/09 11:18:24;;;;;;;13.93;12.23;;;;;;;;;;5036152;28;20021;-64
2022/03/09 11:20:54;;;;;;;16.30;13.18;;;;;;;;;;5037135;28;20036;-64
2022/03/09 11:23:21;;;;;;;19.67;12.70;;;;;;;;;;5036421;28;20049;-64
2022/03/09 11:26:01;;;;;;;18.75;12.45;;;;;;;;;;5039082;28;20052;-64
2022/03/09 11:28:34;;;;;;;14.90;11.70;;;;;;;;;;5038692;28;20033;-64
2022/03/09 11:31:04;;;;;;;16.83;12.27;;;;;;;;;;5037554;28;20543;-64
2022/03/09 11:33:47;;;;;;;14.45;11.20;;;;;;;;;;5038854;28;20041;-64
2022/03/09 11:36:27;;;;;;;14.93;12.00;;;;;;;;;;5034118;28;20487;-64
2022/03/09 11:38:54;;;;;;;19.58;11.40;;;;;;;;;;5030830;28;20536;-64
2022/03/09 11:41:23;;;;;;;22.42;12.13;;;;;;;;;;5037583;28;20445;-64
2022/03/09 11:43:50;;;;;;;19.10;11.70;;;;;;;;;;5040174;28;20021;-64
2022/03/09 11:46:17;;;;;;;17.98;11.95;;;;;;;;;;5044767;28;20425;-64
2022/03/09 11:48:57;;;;;;;15.30;11.90;;;;;;;;;;5036905;28;20469;-64
2022/03/09 11:51:28;;;;;;;20.70;13.23;;;;;;;;;;5034370;28;20037;-63
2022/03/09 11:53:56;;;;;;;16.52;12.70;;;;;;;;;;5036173;28;20052;-64
2022/03/09 11:56:36;;;;;;;19.52;12.45;;;;;;;;;;5037872;28;20033;-63
2022/03/09 11:59:16;;;;;;;15.77;12.98;;;;;;;;;;5029807;28;20066;-62
2022/03/09 12:02:00;;;;;;;20.00;12.85;;;;;;;;;;5030925;28;20021;-63
2022/03/09 12:04:50;;;;;;;23.88;11.90;;;;;;;;;;5030332;28;20033;-63
2022/03/09 12:07:28;;;;;;;15.95;11.48;;;;;;;;;;5040125;28;20116;-64
2022/03/09 12:09:59;;;;;;;14.35;10.95;;;;;;;;;;5039664;28;20072;-63
2022/03/09 12:12:27;;;;;;;12.70;10.95;;;;;;;;;;5033158;28;20060;-63
2022/03/09 12:15:05;;;;;;;18.15;12.18;;;;;;;;;;5036477;28;20025;-64
2022/03/09 12:17:38;;;;;;;14.80;10.88;;;;;;;;;;5032038;28;20029;-63
2022/03/09 12:20:37;;;;;;;19.35;11.93;;;;;;;;;;5039918;28;20759;-63
2022/03/09 12:23:04;;;;;;;16.00;10.73;;;;;;;;;;5031020;28;20091;-63
2022/03/09 12:25:40;;;;;;;18.73;10.85;;;;;;;;;;5038232;28;20493;-63
2022/03/09 12:28:24;;;;;;;15.55;11.43;;;;;;;;;;5035153;28;20041;-63
2022/03/09 12:31:02;;;;;;;16.17;11.18;;;;;;;;;;5034243;28;20025;-64
2022/03/09 12:33:30;;;;;;;14.77;9.98;;;;;;;;;;5034995;28;20037;-64
2022/03/09 12:36:18;;;;;;;21.13;11.48;;;;;;;;;;5031828;28;20120;-64
2022/03/09 12:38:48;;;;;;;16.92;11.13;;;;;;;;;;5035011;28;20036;-63
2022/03/09 12:41:42;;;;;;;13.95;10.27;;;;;;;;;;5040279;28;20057;-64
2022/03/09 12:44:09;;;;;;;18.20;9.32;;;;;;;;;;5030790;28;20116;-64
2022/03/09 12:46:39;;;;;;;15.05;10.07;;;;;;;;;;5033746;28;20537;-63
2022/03/09 12:49:20;;;;;;;16.45;9.88;;;;;;;;;;5033982;28;20390;-64
2022/03/09 12:51:51;;;;;;;17.93;9.93;;;;;;;;;;5035549;28;20030;-63
2022/03/09 12:54:40;;;;;;;15.43;9.63;;;;;;;;;;5030587;28;20033;-64
2022/03/09 12:57:07;;;;;;;21.70;10.18;;;;;;;;;;5031348;28;20037;-63
2022/03/09 12:59:33;;;;;;;20.38;10.80;;;;;;;;;;5030974;28;20034;-64
2022/03/09 13:01:59;;;;;;;26.83;11.90;;;;;;;;;;5036105;28;20021;-63
2022/03/09 13:04:25;;;;;;;15.20;11.10;;;;;;;;;;5038263;28;20025;-63
2022/03/09 13:06:51;;;;;;;15.68;10.57;;;;;;;;;;5037834;28;20033;-64
2022/03/09 13:09:22;;;;;;;20.58;10.73;;;;;;;;;;5035684;28;20040;-63
2022/03/09 13:11:48;;;;;;;14.90;10.32;;;;;;;;;;5032987;28;20087;-63
2022/03/09 13:14:16;;;;;;;13.05;9.80;;;;;;;;;;5035057;28;20032;-64
2022/03/09 13:16:42;;;;;;;12.75;10.30;;;;;;;;;;5029487;28;20053;-63
2022/03/09 13:19:09;;;;;;;16.30;10.48;;;;;;;;;;5039021;28;20106;-63
2022/03/09 13:21:35;;;;;;;17.50;11.02;;;;;;;;;;5041483;28;20033;-63
2022/03/09 13:24:05;;;;;;;13.70;9.52;;;;;;;;;;5045906;28;20104;-64
2022/03/09 13:26:39;;;;;;;12.93;9.70;;;;;;;;;;5033753;28;20313;-64
2022/03/09 13:29:19;;;;;;;14.38;10.25;;;;;;;;;;5034543;28;20402;-64
2022/03/09 13:31:52;;;;;;;14.65;10.32;;;;;;;;;;5035508;28;20490;-63
2022/03/09 13:34:19;;;;;;;18.08;10.10;;;;;;;;;;5035420;28;20033;-63
2022/03/09 13:36:44;;;;;;;20.25;11.43;;;;;;;;;;5037628;28;20040;-64
2022/03/09 13:39:11;;;;;;;16.88;10.02;;;;;;;;;;5033719;28;20033;-64
2022/03/09 13:41:40;;;;;;;20.17;10.18;;;;;;;;;;5041801;28;20464;-64
2022/03/09 13:44:28;;;;;;;21.42;9.75;;;;;;;;;;5038374;28;20486;-64
2022/03/09 13:47:06;;;;;;;12.82;9.18;;;;;;;;;;5033279;28;20037;-64
2022/03/09 13:49:46;;;;;;;16.65;10.88;;;;;;;;;;5035336;28;20583;-64
2022/03/09 13:52:27;;;;;;;13.00;10.23;;;;;;;;;;5042037;28;20064;-64
2022/03/09 13:54:53;;;;;;;16.00;9.60;;;;;;;;;;5040150;28;20033;-64
2022/03/09 13:57:37;;;;;;;16.27;9.20;;;;;;;;;;5036015;28;20087;-64
2022/03/09 14:00:09;;;;;;;15.15;10.45;;;;;;;;;;5040061;28;20033;-64
2022/03/09 14:02:35;;;;;;;;;;;;;;;;;;5036577;28;20039;-64
2022/03/09 14:05:00;;;;;;;15.60;10.73;;;;;;;;;;5033511;28;19913;-64
2022/03/09 14:07:37;;;;;;;16.30;10.27;;;;;;;;;;5035581;28;20048;-64
2022/03/09 14:10:12;;;;;;;16.92;9.30;;;;;;;;;;5034873;28;20040;-64
2022/03/09 14:12:45;;;;;;;16.55;9.77;;;;;;;;;;5041278;28;20044;-64
2022/03/09 14:15:14;;;;;;;19.08;11.07;;;;;;;;;;5037153;28;20025;-64
2022/03/09 14:17:40;;;;;;;23.92;10.75;;;;;;;;;;5040918;28;20033;-63
2022/03/09 14:20:10;;;;;;;17.17;10.70;;;;;;;;;;5033772;28;20120;-64
2022/03/09 14:22:44;;;;;;;22.23;11.45;;;;;;;;;;5033818;28;20044;-64
2022/03/09 14:25:11;;;;;;;15.00;11.13;;;;;;;;;;5039086;28;20045;-64
2022/03/09 14:27:37;;;;;;;13.20;9.98;;;;;;;;;;5034788;28;20107;-64